sensor_id;sensor_type;location;lat;lon;timestamp;temperature;humidity
3067;DHT22;1544;48.834;9.194;2023-08-12T00:01:00;22.30;46.90
3067;DHT22;1544;48.834;9.194;2023-08-12T00:03:36;22.20;47.20
3067;DHT22;1544;48.834;9.194;2023-08-12T00:06:12;22.20;47.40
3067;DHT22;1544;48.834;9.194;2023-08-12T00:08:49;22.10;47.50
3067;DHT22;1544;48.834;9.194;2023-08-12T00:11:24;22.10;47.70
3067;DHT22;1544;48.834;9.194;2023-08-12T00:14:00;22.10;47.80
3067;DHT22;1544;48.834;9.194;2023-08-12T00:16:36;22.10;47.90
3067;DHT22;1544;48.834;9.194;2023-08-12T00:19:12;21.50;47.60
3067;DHT22;1544;48.834;9.194;2023-08-12T00:21:49;22.10;48.20
3067;DHT22;1544;48.834;9.194;2023-08-12T00:24:26;22.10;48.50
3067;DHT22;1544;48.834;9.194;2023-08-12T00:27:02;22.00;48.70
3067;DHT22;1544;48.834;9.194;2023-08-12T00:29:38;22.00;49.50
3067;DHT22;1544;48.834;9.194;2023-08-12T00:32:14;22.00;49.70
3067;DHT22;1544;48.834;9.194;2023-08-12T00:34:50;22.00;49.80
3067;DHT22;1544;48.834;9.194;2023-08-12T00:37:26;22.00;49.90
3067;DHT22;1544;48.834;9.194;2023-08-12T00:40:03;21.90;49.90
3067;DHT22;1544;48.834;9.194;2023-08-12T00:42:40;21.90;50.10
3067;DHT22;1544;48.834;9.194;2023-08-12T00:45:16;21.90;50.20
3067;DHT22;1544;48.834;9.194;2023-08-12T00:47:53;21.90;50.40
3067;DHT22;1544;48.834;9.194;2023-08-12T00:50:29;21.80;50.50
3067;DHT22;1544;48.834;9.194;2023-08-12T00:53:06;21.80;50.70
3067;DHT22;1544;48.834;9.194;2023-08-12T00:55:42;21.70;50.90
3067;DHT22;1544;48.834;9.194;2023-08-12T00:58:19;21.70;51.10
3067;DHT22;1544;48.834;9.194;2023-08-12T01:00:55;21.70;51.60
3067;DHT22;1544;48.834;9.194;2023-08-12T01:03:31;21.60;51.60
3067;DHT22;1544;48.834;9.194;2023-08-12T01:06:07;21.60;51.80
3067;DHT22;1544;48.834;9.194;2023-08-12T01:08:44;21.50;52.00
3067;DHT22;1544;48.834;9.194;2023-08-12T01:11:33;21.50;52.40
3067;DHT22;1544;48.834;9.194;2023-08-12T01:14:56;21.40;52.80
3067;DHT22;1544;48.834;9.194;2023-08-12T01:17:37;21.40;53.10
3067;DHT22;1544;48.834;9.194;2023-08-12T01:20:14;21.40;53.30
3067;DHT22;1544;48.834;9.194;2023-08-12T01:22:57;21.40;53.30
3067;DHT22;1544;48.834;9.194;2023-08-12T01:25:42;21.40;53.40
3067;DHT22;1544;48.834;9.194;2023-08-12T01:28:19;21.40;53.40
3067;DHT22;1544;48.834;9.194;2023-08-12T01:31:15;21.40;53.40
3067;DHT22;1544;48.834;9.194;2023-08-12T01:33:55;21.30;53.30
3067;DHT22;1544;48.834;9.194;2023-08-12T01:36:55;21.30;53.30
3067;DHT22;1544;48.834;9.194;2023-08-12T01:39:33;21.30;53.40
3067;DHT22;1544;48.834;9.194;2023-08-12T01:42:11;21.30;53.40
3067;DHT22;1544;48.834;9.194;2023-08-12T01:44:48;21.30;53.40
3067;DHT22;1544;48.834;9.194;2023-08-12T01:47:25;21.30;53.50
3067;DHT22;1544;48.834;9.194;2023-08-12T01:50:01;21.30;53.60
3067;DHT22;1544;48.834;9.194;2023-08-12T01:52:38;21.20;53.50
3067;DHT22;1544;48.834;9.194;2023-08-12T01:55:14;21.20;53.50
3067;DHT22;1544;48.834;9.194;2023-08-12T01:57:50;21.20;53.60
3067;DHT22;1544;48.834;9.194;2023-08-12T02:00:26;21.20;53.60
3067;DHT22;1544;48.834;9.194;2023-08-12T02:03:03;21.20;53.60
3067;DHT22;1544;48.834;9.194;2023-08-12T02:05:39;21.20;53.70
3067;DHT22;1544;48.834;9.194;2023-08-12T02:08:16;21.20;53.80
3067;DHT22;1544;48.834;9.194;2023-08-12T02:10:52;21.10;54.00
3067;DHT22;1544;48.834;9.194;2023-08-12T02:13:29;21.20;54.20
3067;DHT22;1544;48.834;9.194;2023-08-12T02:16:05;21.20;54.20
3067;DHT22;1544;48.834;9.194;2023-08-12T02:18:41;21.20;54.20
3067;DHT22;1544;48.834;9.194;2023-08-12T02:21:17;21.20;54.20
3067;DHT22;1544;48.834;9.194;2023-08-12T02:23:54;21.30;54.10
3067;DHT22;1544;48.834;9.194;2023-08-12T02:26:30;21.30;54.10
3067;DHT22;1544;48.834;9.194;2023-08-12T02:29:06;21.30;54.00
3067;DHT22;1544;48.834;9.194;2023-08-12T02:31:42;21.30;53.90
3067;DHT22;1544;48.834;9.194;2023-08-12T02:34:18;21.40;54.00
3067;DHT22;1544;48.834;9.194;2023-08-12T02:36:54;21.40;53.90
3067;DHT22;1544;48.834;9.194;2023-08-12T02:39:30;21.40;53.90
3067;DHT22;1544;48.834;9.194;2023-08-12T02:42:06;21.40;53.70
3067;DHT22;1544;48.834;9.194;2023-08-12T02:44:42;21.40;53.50
3067;DHT22;1544;48.834;9.194;2023-08-12T02:47:18;21.40;53.30
3067;DHT22;1544;48.834;9.194;2023-08-12T02:49:54;21.50;53.30
3067;DHT22;1544;48.834;9.194;2023-08-12T02:52:30;21.50;53.30
3067;DHT22;1544;48.834;9.194;2023-08-12T02:55:06;21.50;53.40
3067;DHT22;1544;48.834;9.194;2023-08-12T02:57:42;21.50;53.40
3067;DHT22;1544;48.834;9.194;2023-08-12T03:00:18;21.50;53.40
3067;DHT22;1544;48.834;9.194;2023-08-12T03:02:54;21.50;53.50
3067;DHT22;1544;48.834;9.194;2023-08-12T03:05:31;21.50;53.40
3067;DHT22;1544;48.834;9.194;2023-08-12T03:08:08;21.50;53.30
3067;DHT22;1544;48.834;9.194;2023-08-12T03:10:44;21.50;53.20
3067;DHT22;1544;48.834;9.194;2023-08-12T03:13:22;21.50;53.00
3067;DHT22;1544;48.834;9.194;2023-08-12T03:15:58;21.50;53.00
3067;DHT22;1544;48.834;9.194;2023-08-12T03:18:34;21.50;52.70
3067;DHT22;1544;48.834;9.194;2023-08-12T03:21:10;21.50;52.50
3067;DHT22;1544;48.834;9.194;2023-08-12T03:23:48;21.50;52.40
3067;DHT22;1544;48.834;9.194;2023-08-12T03:26:24;21.60;52.40
3067;DHT22;1544;48.834;9.194;2023-08-12T03:29:02;21.60;52.20
3067;DHT22;1544;48.834;9.194;2023-08-12T03:31:38;21.60;52.10
3067;DHT22;1544;48.834;9.194;2023-08-12T03:34:14;21.60;52.10
3067;DHT22;1544;48.834;9.194;2023-08-12T03:36:51;21.60;52.00
3067;DHT22;1544;48.834;9.194;2023-08-12T03:39:28;21.60;52.00
3067;DHT22;1544;48.834;9.194;2023-08-12T03:42:05;21.60;51.90
3067;DHT22;1544;48.834;9.194;2023-08-12T03:44:43;21.60;51.80
3067;DHT22;1544;48.834;9.194;2023-08-12T03:47:19;21.70;51.80
3067;DHT22;1544;48.834;9.194;2023-08-12T03:49:59;21.70;51.70
3067;DHT22;1544;48.834;9.194;2023-08-12T03:52:35;21.70;51.70
3067;DHT22;1544;48.834;9.194;2023-08-12T03:55:12;21.70;51.60
3067;DHT22;1544;48.834;9.194;2023-08-12T03:57:48;21.70;51.50
3067;DHT22;1544;48.834;9.194;2023-08-12T04:00:24;21.70;51.60
3067;DHT22;1544;48.834;9.194;2023-08-12T04:03:04;21.70;51.60
3067;DHT22;1544;48.834;9.194;2023-08-12T04:05:50;21.70;51.50
3067;DHT22;1544;48.834;9.194;2023-08-12T04:08:28;21.70;51.50
3067;DHT22;1544;48.834;9.194;2023-08-12T04:11:04;21.70;51.50
3067;DHT22;1544;48.834;9.194;2023-08-12T04:13:40;21.70;51.60
3067;DHT22;1544;48.834;9.194;2023-08-12T04:16:16;21.70;51.80
3067;DHT22;1544;48.834;9.194;2023-08-12T04:18:52;21.70;52.10
3067;DHT22;1544;48.834;9.194;2023-08-12T04:21:28;21.70;52.50
3067;DHT22;1544;48.834;9.194;2023-08-12T04:24:05;21.60;52.60
3067;DHT22;1544;48.834;9.194;2023-08-12T04:26:41;21.60;52.70
3067;DHT22;1544;48.834;9.194;2023-08-12T04:29:18;21.60;52.80
3067;DHT22;1544;48.834;9.194;2023-08-12T04:31:55;21.60;52.90
3067;DHT22;1544;48.834;9.194;2023-08-12T04:34:31;21.60;53.10
3067;DHT22;1544;48.834;9.194;2023-08-12T04:37:07;21.60;53.20
3067;DHT22;1544;48.834;9.194;2023-08-12T04:39:44;21.60;53.20
3067;DHT22;1544;48.834;9.194;2023-08-12T04:42:21;21.60;53.10
3067;DHT22;1544;48.834;9.194;2023-08-12T04:44:58;21.60;53.10
3067;DHT22;1544;48.834;9.194;2023-08-12T04:47:36;21.60;53.10
3067;DHT22;1544;48.834;9.194;2023-08-12T04:50:13;21.70;53.10
3067;DHT22;1544;48.834;9.194;2023-08-12T04:52:49;21.70;53.10
3067;DHT22;1544;48.834;9.194;2023-08-12T04:55:27;21.70;53.10
3067;DHT22;1544;48.834;9.194;2023-08-12T04:58:04;21.70;53.10
3067;DHT22;1544;48.834;9.194;2023-08-12T05:00:40;21.70;53.10
3067;DHT22;1544;48.834;9.194;2023-08-12T05:03:17;21.70;53.10
3067;DHT22;1544;48.834;9.194;2023-08-12T05:05:53;21.80;53.10
3067;DHT22;1544;48.834;9.194;2023-08-12T05:08:34;21.80;53.00
3067;DHT22;1544;48.834;9.194;2023-08-12T05:11:10;21.80;53.00
3067;DHT22;1544;48.834;9.194;2023-08-12T05:13:46;21.80;52.90
3067;DHT22;1544;48.834;9.194;2023-08-12T05:16:22;21.90;52.80
3067;DHT22;1544;48.834;9.194;2023-08-12T05:18:59;21.90;52.70
3067;DHT22;1544;48.834;9.194;2023-08-12T05:21:35;21.90;52.50
3067;DHT22;1544;48.834;9.194;2023-08-12T05:24:11;22.00;52.50
3067;DHT22;1544;48.834;9.194;2023-08-12T05:26:47;22.00;52.30
3067;DHT22;1544;48.834;9.194;2023-08-12T05:29:23;22.10;52.30
3067;DHT22;1544;48.834;9.194;2023-08-12T05:31:59;22.10;52.20
3067;DHT22;1544;48.834;9.194;2023-08-12T05:34:35;22.10;52.00
3067;DHT22;1544;48.834;9.194;2023-08-12T05:37:11;22.20;52.00
3067;DHT22;1544;48.834;9.194;2023-08-12T05:39:47;22.20;51.90
3067;DHT22;1544;48.834;9.194;2023-08-12T05:42:23;22.30;51.70
3067;DHT22;1544;48.834;9.194;2023-08-12T05:44:59;22.30;51.30
3067;DHT22;1544;48.834;9.194;2023-08-12T05:47:35;22.40;51.10
3067;DHT22;1544;48.834;9.194;2023-08-12T05:50:11;22.40;50.90
3067;DHT22;1544;48.834;9.194;2023-08-12T05:52:47;22.50;51.00
3067;DHT22;1544;48.834;9.194;2023-08-12T05:55:23;22.50;51.50
3067;DHT22;1544;48.834;9.194;2023-08-12T05:57:59;22.50;51.90
3067;DHT22;1544;48.834;9.194;2023-08-12T06:00:35;22.50;52.40
3067;DHT22;1544;48.834;9.194;2023-08-12T06:03:12;22.50;52.90
3067;DHT22;1544;48.834;9.194;2023-08-12T06:05:48;22.60;53.00
3067;DHT22;1544;48.834;9.194;2023-08-12T06:08:25;22.60;52.90
3067;DHT22;1544;48.834;9.194;2023-08-12T06:11:01;22.00;52.40
3067;DHT22;1544;48.834;9.194;2023-08-12T06:13:37;22.70;52.70
3067;DHT22;1544;48.834;9.194;2023-08-12T06:16:13;22.70;52.80
3067;DHT22;1544;48.834;9.194;2023-08-12T06:18:49;22.70;52.90
3067;DHT22;1544;48.834;9.194;2023-08-12T06:21:25;22.80;52.70
3067;DHT22;1544;48.834;9.194;2023-08-12T06:24:01;22.80;52.80
3067;DHT22;1544;48.834;9.194;2023-08-12T06:26:38;22.80;52.50
3067;DHT22;1544;48.834;9.194;2023-08-12T06:29:14;22.90;52.00
3067;DHT22;1544;48.834;9.194;2023-08-12T06:31:51;22.90;51.60
3067;DHT22;1544;48.834;9.194;2023-08-12T06:34:28;23.00;51.90
3067;DHT22;1544;48.834;9.194;2023-08-12T06:37:04;23.00;52.50
3067;DHT22;1544;48.834;9.194;2023-08-12T06:39:41;23.10;52.90
3067;DHT22;1544;48.834;9.194;2023-08-12T06:42:17;23.20;52.70
3067;DHT22;1544;48.834;9.194;2023-08-12T06:44:58;23.30;52.60
3067;DHT22;1544;48.834;9.194;2023-08-12T06:47:34;23.40;52.30
3067;DHT22;1544;48.834;9.194;2023-08-12T06:50:10;23.50;52.00
3067;DHT22;1544;48.834;9.194;2023-08-12T06:52:47;23.70;51.60
3067;DHT22;1544;48.834;9.194;2023-08-12T06:55:23;23.30;50.60
3067;DHT22;1544;48.834;9.194;2023-08-12T06:58:00;23.90;50.60
3067;DHT22;1544;48.834;9.194;2023-08-12T07:00:36;24.00;50.00
3067;DHT22;1544;48.834;9.194;2023-08-12T07:03:12;24.10;49.60
3067;DHT22;1544;48.834;9.194;2023-08-12T07:05:48;24.20;49.10
3067;DHT22;1544;48.834;9.194;2023-08-12T07:08:24;24.20;48.80
3067;DHT22;1544;48.834;9.194;2023-08-12T07:11:02;24.30;48.50
3067;DHT22;1544;48.834;9.194;2023-08-12T07:13:38;24.30;48.20
3067;DHT22;1544;48.834;9.194;2023-08-12T07:16:14;24.40;47.80
3067;DHT22;1544;48.834;9.194;2023-08-12T07:18:51;24.50;47.30
3067;DHT22;1544;48.834;9.194;2023-08-12T07:21:27;24.70;47.20
3067;DHT22;1544;48.834;9.194;2023-08-12T07:24:03;24.70;47.00
3067;DHT22;1544;48.834;9.194;2023-08-12T07:26:39;24.80;46.90
3067;DHT22;1544;48.834;9.194;2023-08-12T07:29:15;24.80;46.70
3067;DHT22;1544;48.834;9.194;2023-08-12T07:31:52;24.80;46.80
3067;DHT22;1544;48.834;9.194;2023-08-12T07:34:28;24.80;47.00
3067;DHT22;1544;48.834;9.194;2023-08-12T07:37:06;24.90;46.90
3067;DHT22;1544;48.834;9.194;2023-08-12T07:39:42;25.00;46.50
3067;DHT22;1544;48.834;9.194;2023-08-12T07:42:19;25.10;46.30
3067;DHT22;1544;48.834;9.194;2023-08-12T07:44:55;25.20;46.70
3067;DHT22;1544;48.834;9.194;2023-08-12T07:47:31;25.30;46.30
3067;DHT22;1544;48.834;9.194;2023-08-12T07:50:07;25.40;46.00
3067;DHT22;1544;48.834;9.194;2023-08-12T07:52:44;25.40;45.70
3067;DHT22;1544;48.834;9.194;2023-08-12T07:55:20;25.40;45.50
3067;DHT22;1544;48.834;9.194;2023-08-12T07:57:59;25.40;45.30
3067;DHT22;1544;48.834;9.194;2023-08-12T08:00:35;25.50;45.30
3067;DHT22;1544;48.834;9.194;2023-08-12T08:03:11;25.50;45.20
3067;DHT22;1544;48.834;9.194;2023-08-12T08:05:47;25.60;45.00
3067;DHT22;1544;48.834;9.194;2023-08-12T08:08:23;25.50;45.40
3067;DHT22;1544;48.834;9.194;2023-08-12T08:10:59;25.50;45.30
3067;DHT22;1544;48.834;9.194;2023-08-12T08:13:35;25.50;45.10
3067;DHT22;1544;48.834;9.194;2023-08-12T08:16:12;25.60;45.10
3067;DHT22;1544;48.834;9.194;2023-08-12T08:18:48;25.60;44.90
3067;DHT22;1544;48.834;9.194;2023-08-12T08:21:24;25.70;44.80
3067;DHT22;1544;48.834;9.194;2023-08-12T08:24:00;25.80;44.60
3067;DHT22;1544;48.834;9.194;2023-08-12T08:26:36;25.80;44.10
3067;DHT22;1544;48.834;9.194;2023-08-12T08:29:13;25.90;44.50
3067;DHT22;1544;48.834;9.194;2023-08-12T08:31:49;26.00;44.00
3067;DHT22;1544;48.834;9.194;2023-08-12T08:34:25;26.10;43.90
3067;DHT22;1544;48.834;9.194;2023-08-12T08:37:01;26.20;43.80
3067;DHT22;1544;48.834;9.194;2023-08-12T08:39:37;26.30;43.40
3067;DHT22;1544;48.834;9.194;2023-08-12T08:42:15;26.50;43.10
3067;DHT22;1544;48.834;9.194;2023-08-12T08:44:52;26.50;42.80
3067;DHT22;1544;48.834;9.194;2023-08-12T08:47:29;26.60;42.60
3067;DHT22;1544;48.834;9.194;2023-08-12T08:50:06;26.60;42.30
3067;DHT22;1544;48.834;9.194;2023-08-12T08:52:42;26.60;41.50
3067;DHT22;1544;48.834;9.194;2023-08-12T08:55:19;26.70;41.60
3067;DHT22;1544;48.834;9.194;2023-08-12T08:57:58;26.80;41.80
3067;DHT22;1544;48.834;9.194;2023-08-12T09:00:40;26.90;41.80
3067;DHT22;1544;48.834;9.194;2023-08-12T09:03:17;27.10;41.70
3067;DHT22;1544;48.834;9.194;2023-08-12T09:05:55;27.10;41.50
3067;DHT22;1544;48.834;9.194;2023-08-12T09:08:32;27.20;41.50
3067;DHT22;1544;48.834;9.194;2023-08-12T09:11:08;27.30;41.20
3067;DHT22;1544;48.834;9.194;2023-08-12T09:13:45;27.40;40.80
3067;DHT22;1544;48.834;9.194;2023-08-12T09:16:22;27.70;40.80
3067;DHT22;1544;48.834;9.194;2023-08-12T09:18:58;27.90;40.70
3067;DHT22;1544;48.834;9.194;2023-08-12T09:21:34;28.00;40.50
3067;DHT22;1544;48.834;9.194;2023-08-12T09:24:10;28.00;40.40
3067;DHT22;1544;48.834;9.194;2023-08-12T09:26:54;28.00;40.10
3067;DHT22;1544;48.834;9.194;2023-08-12T09:29:32;28.10;40.50
3067;DHT22;1544;48.834;9.194;2023-08-12T09:32:13;28.20;40.20
3067;DHT22;1544;48.834;9.194;2023-08-12T09:34:54;28.20;40.10
3067;DHT22;1544;48.834;9.194;2023-08-12T09:37:32;28.30;40.00
3067;DHT22;1544;48.834;9.194;2023-08-12T09:40:08;28.40;39.90
3067;DHT22;1544;48.834;9.194;2023-08-12T09:42:45;28.40;39.50
3067;DHT22;1544;48.834;9.194;2023-08-12T09:45:26;28.50;39.50
3067;DHT22;1544;48.834;9.194;2023-08-12T09:48:02;28.60;38.90
3067;DHT22;1544;48.834;9.194;2023-08-12T09:50:39;28.70;39.00
3067;DHT22;1544;48.834;9.194;2023-08-12T09:53:16;28.90;39.00
3067;DHT22;1544;48.834;9.194;2023-08-12T09:55:53;29.20;38.50
3067;DHT22;1544;48.834;9.194;2023-08-12T09:58:32;29.60;38.30
3067;DHT22;1544;48.834;9.194;2023-08-12T10:01:10;29.90;38.00
3067;DHT22;1544;48.834;9.194;2023-08-12T10:03:49;30.20;38.10
3067;DHT22;1544;48.834;9.194;2023-08-12T10:06:27;30.50;37.60
3067;DHT22;1544;48.834;9.194;2023-08-12T10:09:04;30.70;36.90
3067;DHT22;1544;48.834;9.194;2023-08-12T10:11:44;30.90;36.70
3067;DHT22;1544;48.834;9.194;2023-08-12T10:14:21;30.90;36.70
3067;DHT22;1544;48.834;9.194;2023-08-12T10:16:58;30.90;37.10
3067;DHT22;1544;48.834;9.194;2023-08-12T10:19:44;30.90;37.80
3067;DHT22;1544;48.834;9.194;2023-08-12T10:22:21;30.90;38.20
3067;DHT22;1544;48.834;9.194;2023-08-12T10:24:59;31.00;38.50
3067;DHT22;1544;48.834;9.194;2023-08-12T10:27:37;30.90;38.80
3067;DHT22;1544;48.834;9.194;2023-08-12T10:30:13;30.90;38.90
3067;DHT22;1544;48.834;9.194;2023-08-12T10:32:50;31.00;39.30
3067;DHT22;1544;48.834;9.194;2023-08-12T10:35:46;31.00;39.40
3067;DHT22;1544;48.834;9.194;2023-08-12T10:38:24;31.20;39.50
3067;DHT22;1544;48.834;9.194;2023-08-12T10:41:21;31.30;39.20
3067;DHT22;1544;48.834;9.194;2023-08-12T10:44:05;31.30;38.50
3067;DHT22;1544;48.834;9.194;2023-08-12T10:46:50;31.30;38.60
3067;DHT22;1544;48.834;9.194;2023-08-12T10:49:26;31.30;37.60
3067;DHT22;1544;48.834;9.194;2023-08-12T10:52:02;31.30;37.40
3067;DHT22;1544;48.834;9.194;2023-08-12T10:54:38;31.30;37.30
3067;DHT22;1544;48.834;9.194;2023-08-12T10:57:14;31.40;36.00
3067;DHT22;1544;48.834;9.194;2023-08-12T10:59:52;31.50;35.10
3067;DHT22;1544;48.834;9.194;2023-08-12T11:02:33;31.70;35.50
3067;DHT22;1544;48.834;9.194;2023-08-12T11:05:10;31.80;35.20
3067;DHT22;1544;48.834;9.194;2023-08-12T11:07:58;31.90;35.40
3067;DHT22;1544;48.834;9.194;2023-08-12T11:10:37;31.90;34.80
3067;DHT22;1544;48.834;9.194;2023-08-12T11:13:14;32.00;34.10
3067;DHT22;1544;48.834;9.194;2023-08-12T11:15:50;31.80;34.00
3067;DHT22;1544;48.834;9.194;2023-08-12T11:18:27;31.80;33.80
3067;DHT22;1544;48.834;9.194;2023-08-12T11:21:05;31.70;33.90
3067;DHT22;1544;48.834;9.194;2023-08-12T11:23:41;31.70;33.30
3067;DHT22;1544;48.834;9.194;2023-08-12T11:26:18;31.70;33.10
3067;DHT22;1544;48.834;9.194;2023-08-12T11:28:54;31.80;33.50
3067;DHT22;1544;48.834;9.194;2023-08-12T11:31:30;31.90;33.40
3067;DHT22;1544;48.834;9.194;2023-08-12T11:34:06;31.90;33.40
3067;DHT22;1544;48.834;9.194;2023-08-12T11:36:42;32.00;33.70
3067;DHT22;1544;48.834;9.194;2023-08-12T11:39:19;32.20;33.60
3067;DHT22;1544;48.834;9.194;2023-08-12T11:41:55;32.40;33.20
3067;DHT22;1544;48.834;9.194;2023-08-12T11:44:33;32.60;33.40
3067;DHT22;1544;48.834;9.194;2023-08-12T11:47:09;32.90;32.90
3067;DHT22;1544;48.834;9.194;2023-08-12T11:49:45;33.30;33.00
3067;DHT22;1544;48.834;9.194;2023-08-12T11:52:21;33.50;32.50
3067;DHT22;1544;48.834;9.194;2023-08-12T11:54:59;33.50;32.40
3067;DHT22;1544;48.834;9.194;2023-08-12T11:57:35;33.40;31.90
3067;DHT22;1544;48.834;9.194;2023-08-12T12:00:13;33.10;31.50
3067;DHT22;1544;48.834;9.194;2023-08-12T12:02:53;32.60;32.90
3067;DHT22;1544;48.834;9.194;2023-08-12T12:05:30;31.70;35.40
3067;DHT22;1544;48.834;9.194;2023-08-12T12:08:07;30.60;37.40
3067;DHT22;1544;48.834;9.194;2023-08-12T12:10:47;29.40;37.90
3067;DHT22;1544;48.834;9.194;2023-08-12T12:13:23;28.50;39.10
3067;DHT22;1544;48.834;9.194;2023-08-12T12:16:01;28.00;39.70
3067;DHT22;1544;48.834;9.194;2023-08-12T12:18:37;27.70;40.00
3067;DHT22;1544;48.834;9.194;2023-08-12T12:21:20;27.40;40.30
3067;DHT22;1544;48.834;9.194;2023-08-12T12:23:58;27.10;41.00
3067;DHT22;1544;48.834;9.194;2023-08-12T12:26:34;26.80;41.90
3067;DHT22;1544;48.834;9.194;2023-08-12T12:29:11;26.50;42.10
3067;DHT22;1544;48.834;9.194;2023-08-12T12:31:47;26.40;42.60
3067;DHT22;1544;48.834;9.194;2023-08-12T12:34:23;26.30;44.30
3067;DHT22;1544;48.834;9.194;2023-08-12T12:36:59;26.20;48.00
3067;DHT22;1544;48.834;9.194;2023-08-12T12:39:35;25.80;61.10
3067;DHT22;1544;48.834;9.194;2023-08-12T12:42:11;25.20;74.00
3067;DHT22;1544;48.834;9.194;2023-08-12T12:44:48;24.70;84.00
3067;DHT22;1544;48.834;9.194;2023-08-12T12:47:24;24.50;86.40
3067;DHT22;1544;48.834;9.194;2023-08-12T12:50:00;24.40;88.60
3067;DHT22;1544;48.834;9.194;2023-08-12T12:52:36;24.30;86.60
3067;DHT22;1544;48.834;9.194;2023-08-12T12:55:12;24.10;82.80
3067;DHT22;1544;48.834;9.194;2023-08-12T12:57:48;24.00;87.10
3067;DHT22;1544;48.834;9.194;2023-08-12T13:00:24;24.00;90.20
3067;DHT22;1544;48.834;9.194;2023-08-12T13:03:00;24.10;91.80
3067;DHT22;1544;48.834;9.194;2023-08-12T13:05:36;24.20;92.60
3067;DHT22;1544;48.834;9.194;2023-08-12T13:08:12;24.30;93.10
3067;DHT22;1544;48.834;9.194;2023-08-12T13:10:48;24.40;93.40
3067;DHT22;1544;48.834;9.194;2023-08-12T13:13:24;24.60;93.40
3067;DHT22;1544;48.834;9.194;2023-08-12T13:16:00;24.90;93.20
3067;DHT22;1544;48.834;9.194;2023-08-12T13:18:36;25.10;93.00
3067;DHT22;1544;48.834;9.194;2023-08-12T13:21:12;25.20;92.70
3067;DHT22;1544;48.834;9.194;2023-08-12T13:23:48;25.30;91.80
3067;DHT22;1544;48.834;9.194;2023-08-12T13:26:24;25.30;91.00
3067;DHT22;1544;48.834;9.194;2023-08-12T13:29:00;25.40;90.70
3067;DHT22;1544;48.834;9.194;2023-08-12T13:31:36;25.50;90.50
3067;DHT22;1544;48.834;9.194;2023-08-12T13:34:12;25.60;90.50
3067;DHT22;1544;48.834;9.194;2023-08-12T13:36:48;25.60;90.20
3067;DHT22;1544;48.834;9.194;2023-08-12T13:39:24;25.70;89.60
3067;DHT22;1544;48.834;9.194;2023-08-12T13:42:00;25.80;88.60
3067;DHT22;1544;48.834;9.194;2023-08-12T13:44:36;25.80;87.20
3067;DHT22;1544;48.834;9.194;2023-08-12T13:47:12;25.90;86.10
3067;DHT22;1544;48.834;9.194;2023-08-12T13:49:48;26.10;85.70
3067;DHT22;1544;48.834;9.194;2023-08-12T13:52:24;26.30;83.90
3067;DHT22;1544;48.834;9.194;2023-08-12T13:55:00;26.80;82.90
3067;DHT22;1544;48.834;9.194;2023-08-12T13:57:36;27.40;79.90
3067;DHT22;1544;48.834;9.194;2023-08-12T14:00:12;27.90;76.40
3067;DHT22;1544;48.834;9.194;2023-08-12T14:02:53;28.30;71.90
3067;DHT22;1544;48.834;9.194;2023-08-12T14:05:29;28.80;65.10
3067;DHT22;1544;48.834;9.194;2023-08-12T14:08:05;29.20;61.50
3067;DHT22;1544;48.834;9.194;2023-08-12T14:10:41;29.70;59.60
3067;DHT22;1544;48.834;9.194;2023-08-12T14:13:17;30.00;56.40
3067;DHT22;1544;48.834;9.194;2023-08-12T14:15:53;30.40;52.40
3067;DHT22;1544;48.834;9.194;2023-08-12T14:18:30;30.70;50.40
3067;DHT22;1544;48.834;9.194;2023-08-12T14:21:06;31.00;51.40
3067;DHT22;1544;48.834;9.194;2023-08-12T14:23:41;31.40;51.10
3067;DHT22;1544;48.834;9.194;2023-08-12T14:26:18;31.70;49.30
3067;DHT22;1544;48.834;9.194;2023-08-12T14:28:54;32.00;47.60
3067;DHT22;1544;48.834;9.194;2023-08-12T14:31:30;32.30;45.40
3067;DHT22;1544;48.834;9.194;2023-08-12T14:34:06;32.60;46.10
3067;DHT22;1544;48.834;9.194;2023-08-12T14:36:42;32.80;44.50
3067;DHT22;1544;48.834;9.194;2023-08-12T14:39:18;33.10;44.60
3067;DHT22;1544;48.834;9.194;2023-08-12T14:41:54;33.40;44.00
3067;DHT22;1544;48.834;9.194;2023-08-12T14:44:30;33.70;43.10
3067;DHT22;1544;48.834;9.194;2023-08-12T14:47:11;33.90;42.80
3067;DHT22;1544;48.834;9.194;2023-08-12T14:49:48;34.20;42.70
3067;DHT22;1544;48.834;9.194;2023-08-12T14:52:26;34.40;41.90
3067;DHT22;1544;48.834;9.194;2023-08-12T14:55:02;34.70;41.60
3067;DHT22;1544;48.834;9.194;2023-08-12T14:57:38;35.00;41.50
3067;DHT22;1544;48.834;9.194;2023-08-12T15:00:14;35.20;41.60
3067;DHT22;1544;48.834;9.194;2023-08-12T15:02:50;35.50;41.20
3067;DHT22;1544;48.834;9.194;2023-08-12T15:05:27;35.60;39.70
3067;DHT22;1544;48.834;9.194;2023-08-12T15:08:03;35.90;39.10
3067;DHT22;1544;48.834;9.194;2023-08-12T15:10:40;36.20;40.00
3067;DHT22;1544;48.834;9.194;2023-08-12T15:13:16;36.50;39.40
3067;DHT22;1544;48.834;9.194;2023-08-12T15:15:51;36.70;38.50
3067;DHT22;1544;48.834;9.194;2023-08-12T15:18:28;36.80;37.80
3067;DHT22;1544;48.834;9.194;2023-08-12T15:21:04;36.50;37.30
3067;DHT22;1544;48.834;9.194;2023-08-12T15:23:40;36.20;38.20
3067;DHT22;1544;48.834;9.194;2023-08-12T15:26:16;35.80;38.60
3067;DHT22;1544;48.834;9.194;2023-08-12T15:28:53;35.40;38.10
3067;DHT22;1544;48.834;9.194;2023-08-12T15:31:29;34.90;38.00
3067;DHT22;1544;48.834;9.194;2023-08-12T15:34:05;34.50;38.10
3067;DHT22;1544;48.834;9.194;2023-08-12T15:36:41;34.00;39.20
3067;DHT22;1544;48.834;9.194;2023-08-12T15:39:17;33.60;40.10
3067;DHT22;1544;48.834;9.194;2023-08-12T15:41:53;33.20;41.20
3067;DHT22;1544;48.834;9.194;2023-08-12T15:44:29;32.80;40.40
3067;DHT22;1544;48.834;9.194;2023-08-12T15:47:05;32.40;40.10
3067;DHT22;1544;48.834;9.194;2023-08-12T15:49:41;32.00;41.00
3067;DHT22;1544;48.834;9.194;2023-08-12T15:52:17;31.60;40.80
3067;DHT22;1544;48.834;9.194;2023-08-12T15:54:53;31.30;41.50
3067;DHT22;1544;48.834;9.194;2023-08-12T15:57:29;31.00;42.00
3067;DHT22;1544;48.834;9.194;2023-08-12T16:00:06;30.70;42.20
3067;DHT22;1544;48.834;9.194;2023-08-12T16:02:43;30.50;42.70
3067;DHT22;1544;48.834;9.194;2023-08-12T16:05:19;30.30;43.60
3067;DHT22;1544;48.834;9.194;2023-08-12T16:07:55;30.10;44.80
3067;DHT22;1544;48.834;9.194;2023-08-12T16:10:31;29.90;45.10
3067;DHT22;1544;48.834;9.194;2023-08-12T16:13:07;29.70;45.30
3067;DHT22;1544;48.834;9.194;2023-08-12T16:15:43;29.50;45.00
3067;DHT22;1544;48.834;9.194;2023-08-12T16:18:19;29.30;44.40
3067;DHT22;1544;48.834;9.194;2023-08-12T16:20:55;29.10;45.10
3067;DHT22;1544;48.834;9.194;2023-08-12T16:23:31;28.80;46.70
3067;DHT22;1544;48.834;9.194;2023-08-12T16:26:07;28.60;46.50
3067;DHT22;1544;48.834;9.194;2023-08-12T16:28:43;28.20;59.30
3067;DHT22;1544;48.834;9.194;2023-08-12T16:31:19;27.40;73.60
3067;DHT22;1544;48.834;9.194;2023-08-12T16:33:55;26.70;83.00
3067;DHT22;1544;48.834;9.194;2023-08-12T16:36:31;26.40;90.30
3067;DHT22;1544;48.834;9.194;2023-08-12T16:39:07;26.10;90.50
3067;DHT22;1544;48.834;9.194;2023-08-12T16:41:44;25.70;90.20
3067;DHT22;1544;48.834;9.194;2023-08-12T16:44:20;25.50;91.40
3067;DHT22;1544;48.834;9.194;2023-08-12T16:46:56;25.30;92.00
3067;DHT22;1544;48.834;9.194;2023-08-12T16:49:33;25.20;91.90
3067;DHT22;1544;48.834;9.194;2023-08-12T16:52:09;25.10;92.10
3067;DHT22;1544;48.834;9.194;2023-08-12T16:54:46;24.90;91.20
3067;DHT22;1544;48.834;9.194;2023-08-12T16:57:22;24.80;91.10
3067;DHT22;1544;48.834;9.194;2023-08-12T16:59:58;24.70;90.10
3067;DHT22;1544;48.834;9.194;2023-08-12T17:02:34;24.60;90.20
3067;DHT22;1544;48.834;9.194;2023-08-12T17:05:10;24.60;90.40